createdAt,value
2023-05-03T00:01:41.410Z,344.92
2023-05-03T00:03:45.897Z,323.90
2023-05-03T00:05:48.890Z,288.35
2023-05-03T00:07:51.415Z,279.10
2023-05-03T00:09:53.977Z,281.38
2023-05-03T00:12:00.846Z,268.17
2023-05-03T00:14:03.389Z,277.77
2023-05-03T00:16:08.991Z,281.50
2023-05-03T00:18:11.720Z,243.73
2023-05-03T00:20:15.509Z,243.70
2023-05-03T00:22:18.205Z,200.38
2023-05-03T00:24:20.735Z,257.45
2023-05-03T00:26:23.458Z,208.93
2023-05-03T00:28:28.553Z,265.27
2023-05-03T00:30:31.538Z,252.40
2023-05-03T00:32:34.249Z,273.85
2023-05-03T00:34:36.901Z,201.77
2023-05-03T00:36:39.504Z,246.80
2023-05-03T00:38:43.146Z,227.45
2023-05-03T00:40:46.599Z,217.80
2023-05-03T00:42:49.206Z,144.90
2023-05-03T00:44:56.132Z,124.18
2023-05-03T00:47:02.012Z,108.55
2023-05-03T00:49:04.748Z,141.15
2023-05-03T00:51:08.270Z,147.02
2023-05-03T00:53:11.354Z,161.65
2023-05-03T00:55:15.737Z,203.38
2023-05-03T00:57:18.953Z,186.68
2023-05-03T00:59:21.538Z,164.85
2023-05-03T01:01:26.983Z,167.65
2023-05-03T01:03:29.990Z,185.43
2023-05-03T01:05:44.623Z,215.20
2023-05-03T01:07:58.502Z,192.87
2023-05-03T01:10:08.433Z,214.07
2023-05-03T01:12:23.281Z,225.57
2023-05-03T01:16:40.132Z,158.88
2023-05-03T01:18:49.219Z,225.15
2023-05-03T01:20:53.461Z,202.57
2023-05-03T01:23:05.555Z,244.05
2023-05-03T01:25:12.318Z,239.55
2023-05-03T01:27:14.780Z,282.95
2023-05-03T01:29:17.509Z,327.98
2023-05-03T01:31:26.724Z,308.25
2023-05-03T01:33:37.850Z,306.70
2023-05-03T01:35:44.509Z,285.35
2023-05-03T01:37:48.034Z,308.20
2023-05-03T01:39:56.137Z,312.05
2023-05-03T01:42:02.476Z,303.95
2023-05-03T01:44:05.863Z,296.88
2023-05-03T01:46:08.729Z,297.00
2023-05-03T01:48:12.400Z,315.05
2023-05-03T01:50:14.967Z,292.97
2023-05-03T01:52:17.398Z,335.38
2023-05-03T01:54:20.076Z,310.35
2023-05-03T01:56:23.053Z,334.75
2023-05-03T01:58:28.287Z,315.65
2023-05-03T02:00:30.804Z,350.08
2023-05-03T02:02:33.294Z,316.25
2023-05-03T02:04:36.357Z,290.58
2023-05-03T02:06:39.664Z,315.88
2023-05-03T02:08:42.286Z,319.20
2023-05-03T02:10:46.560Z,319.73
2023-05-03T02:12:48.950Z,336.48
2023-05-03T02:14:54.201Z,352.92
2023-05-03T02:16:56.719Z,315.38
2023-05-03T02:18:59.840Z,363.27
2023-05-03T02:21:02.424Z,318.83
2023-05-03T02:23:05.084Z,306.00
2023-05-03T02:25:10.939Z,322.58
2023-05-03T02:27:13.471Z,357.63
2023-05-03T02:29:15.878Z,319.55
2023-05-03T02:31:21.863Z,345.23
2023-05-03T02:33:26.434Z,338.85
2023-05-03T02:35:29.116Z,354.00
2023-05-03T02:37:31.597Z,328.85
2023-05-03T02:39:36.211Z,346.20
2023-05-03T02:41:40.346Z,335.95
2023-05-03T02:43:43.612Z,279.87
2023-05-03T02:45:46.165Z,277.48
2023-05-03T02:47:51.888Z,274.85
2023-05-03T02:49:55.310Z,323.58
2023-05-03T02:51:59.560Z,266.35
2023-05-03T02:54:02.080Z,274.35
2023-05-03T02:56:05.063Z,286.55
2023-05-03T02:58:08.011Z,286.38
2023-05-03T03:00:12.923Z,347.90
2023-05-03T03:02:15.540Z,306.05
2023-05-03T03:04:20.582Z,281.95
2023-05-03T03:06:23.226Z,335.23
2023-05-03T03:08:26.584Z,348.43
2023-05-03T03:10:33.149Z,353.38
2023-05-03T03:12:36.643Z,375.10
2023-05-03T03:14:42.955Z,321.05
2023-05-03T03:16:46.381Z,339.23
2023-05-03T03:18:49.033Z,306.67
2023-05-03T03:20:54.091Z,361.17
2023-05-03T03:22:57.907Z,362.95
2023-05-03T03:25:00.569Z,339.17
2023-05-03T03:27:05.614Z,355.63
2023-05-03T03:29:11.069Z,326.70
2023-05-03T03:31:18.458Z,301.10
2023-05-03T03:35:29.620Z,202.73
2023-05-03T03:37:35.266Z,217.30
2023-05-03T03:39:40.208Z,226.85
2023-05-03T03:41:42.960Z,283.42
2023-05-03T03:43:46.471Z,274.88
2023-05-03T03:45:53.024Z,240.07
2023-05-03T03:47:58.423Z,254.38
2023-05-03T03:50:04.705Z,246.75
2023-05-03T03:52:08.663Z,287.65
2023-05-03T03:54:14.758Z,254.68
2023-05-03T03:56:22.086Z,291.77
2023-05-03T03:58:26.824Z,259.70
2023-05-03T04:02:42.011Z,316.95
2023-05-03T04:04:51.127Z,351.90
2023-05-03T04:06:54.610Z,346.27
2023-05-03T04:09:01.035Z,320.45
2023-05-03T04:11:10.813Z,326.00
2023-05-03T04:13:16.401Z,383.08
2023-05-03T04:17:23.168Z,279.17
2023-05-03T04:19:26.660Z,359.20
2023-05-03T04:21:29.560Z,346.23
2023-05-03T04:23:32.375Z,406.65
2023-05-03T04:25:37.229Z,394.90
2023-05-03T04:27:49.039Z,375.10
2023-05-03T04:29:53.425Z,324.88
2023-05-03T04:31:56.326Z,334.83
2023-05-03T04:34:02.158Z,379.70
2023-05-03T04:36:06.344Z,401.05
2023-05-03T04:38:11.793Z,467.95
2023-05-03T04:40:14.739Z,476.13
2023-05-03T04:42:21.577Z,442.88
2023-05-03T04:44:27.972Z,618.15
2023-05-03T04:46:30.579Z,390.83
2023-05-03T04:48:33.326Z,363.35
2023-05-03T04:50:37.816Z,373.42
2023-05-03T04:52:43.447Z,372.83
2023-05-03T04:54:46.837Z,357.33
2023-05-03T04:56:49.296Z,401.30
2023-05-03T04:58:54.169Z,348.77
2023-05-03T05:01:00.056Z,358.55
2023-05-03T05:03:07.343Z,445.45
2023-05-03T05:07:14.018Z,205.85
2023-05-03T05:09:22.867Z,244.55
2023-05-03T05:11:27.580Z,288.17
2023-05-03T05:13:30.828Z,281.73
2023-05-03T05:15:33.318Z,259.85
2023-05-03T05:17:39.423Z,335.57
2023-05-03T05:19:45.051Z,279.23
2023-05-03T05:21:48.304Z,325.42
2023-05-03T05:23:51.642Z,315.38
2023-05-03T05:25:55.001Z,326.10
2023-05-03T05:27:57.648Z,332.92
2023-05-03T05:30:00.484Z,340.80
2023-05-03T05:32:05.481Z,348.83
2023-05-03T05:34:15.368Z,386.80
2023-05-03T05:36:18.176Z,341.63
2023-05-03T05:38:21.234Z,417.30
2023-05-03T05:40:26.493Z,537.03
2023-05-03T05:42:32.118Z,422.38
2023-05-03T05:44:34.738Z,375.85
2023-05-03T05:46:37.495Z,351.00
2023-05-03T05:48:42.612Z,371.45
2023-05-03T05:50:47.693Z,455.15
2023-05-03T05:52:53.059Z,374.58
2023-05-03T05:54:56.641Z,364.20
2023-05-03T05:57:01.656Z,443.60
2023-05-03T05:59:06.265Z,462.23
2023-05-03T06:03:14.627Z,503.63
2023-05-03T06:05:18.277Z,407.33
2023-05-03T06:07:25.331Z,413.17
2023-05-03T06:09:28.859Z,347.30
2023-05-03T06:11:38.434Z,378.23
2023-05-03T06:13:41.996Z,383.42
2023-05-03T06:15:46.131Z,406.70
2023-05-03T06:17:48.805Z,431.25
2023-05-03T06:19:51.607Z,378.58
2023-05-03T06:21:55.390Z,395.88
2023-05-03T06:24:01.283Z,456.55
2023-05-03T06:26:04.575Z,354.65
2023-05-03T06:28:08.414Z,358.00
2023-05-03T06:30:13.056Z,354.08
2023-05-03T06:32:16.873Z,362.08
2023-05-03T06:34:23.084Z,370.90
2023-05-03T06:36:27.997Z,380.63
2023-05-03T06:38:30.529Z,364.27
2023-05-03T06:40:38.265Z,396.05
2023-05-03T06:42:41.266Z,390.02
2023-05-03T06:44:55.615Z,377.02
2023-05-03T06:46:58.451Z,364.95
2023-05-03T06:49:01.489Z,407.98
2023-05-03T06:51:04.405Z,401.25
2023-05-03T06:53:07.351Z,407.73
2023-05-03T06:55:10.441Z,416.52
2023-05-03T06:57:15.646Z,414.40
2023-05-03T06:59:18.157Z,389.98
2023-05-03T07:01:26.576Z,394.42
2023-05-03T07:03:29.210Z,392.70
2023-05-03T07:05:34.641Z,389.02
2023-05-03T07:07:37.475Z,395.52
2023-05-03T07:09:43.658Z,382.90
2023-05-03T07:11:50.568Z,341.05
2023-05-03T07:13:55.758Z,380.83
2023-05-03T07:15:59.472Z,393.40
2023-05-03T07:18:04.153Z,307.63
2023-05-03T07:20:08.257Z,282.83
2023-05-03T07:22:13.523Z,369.80
2023-05-03T07:24:16.450Z,365.50
2023-05-03T07:26:19.133Z,376.55
2023-05-03T07:28:21.785Z,362.23
2023-05-03T07:30:27.108Z,380.83
2023-05-03T07:32:30.240Z,284.00
2023-05-03T07:34:33.049Z,366.00
2023-05-03T07:36:36.115Z,402.15
2023-05-03T07:38:38.749Z,176.27
2023-05-03T07:40:41.838Z,281.50
2023-05-03T07:42:44.363Z,80.90
2023-05-03T07:44:46.943Z,197.70
2023-05-03T07:46:52.194Z,78.53
2023-05-03T07:48:58.847Z,147.20
2023-05-03T07:51:04.151Z,98.60
2023-05-03T07:53:06.722Z,88.38
2023-05-03T07:55:09.978Z,105.20
2023-05-03T07:57:13.294Z,78.43
2023-05-03T07:59:15.969Z,127.35
2023-05-03T08:01:18.475Z,209.50
2023-05-03T08:03:24.202Z,159.15
2023-05-03T08:05:26.925Z,191.20
2023-05-03T08:07:29.990Z,213.48
2023-05-03T08:09:35.632Z,121.40
2023-05-03T08:11:39.505Z,71.70
2023-05-03T08:13:42.999Z,138.63
2023-05-03T08:15:46.192Z,95.82
2023-05-03T08:17:48.856Z,132.10
2023-05-03T08:19:56.218Z,69.93
2023-05-03T08:21:59.099Z,74.75
2023-05-03T08:24:06.581Z,123.80
2023-05-03T08:26:10.130Z,104.80
2023-05-03T08:28:12.731Z,172.75
2023-05-03T08:30:16.919Z,99.45
2023-05-03T08:32:21.216Z,120.82
2023-05-03T08:36:29.605Z,91.72
2023-05-03T08:38:32.939Z,150.63
2023-05-03T08:40:37.672Z,144.60
2023-05-03T08:42:41.659Z,138.13
2023-05-03T08:44:50.143Z,121.30
2023-05-03T08:46:53.141Z,124.70
2023-05-03T08:48:56.236Z,121.57
2023-05-03T08:51:00.285Z,124.50
2023-05-03T08:53:06.177Z,139.65
2023-05-03T08:55:09.917Z,92.85
2023-05-03T08:57:17.745Z,94.60
2023-05-03T08:59:20.250Z,115.18
2023-05-03T09:01:22.817Z,104.35
2023-05-03T09:03:25.620Z,109.20
2023-05-03T09:05:35.562Z,122.18
2023-05-03T09:07:38.218Z,135.20
2023-05-03T09:09:45.558Z,87.07
2023-05-03T09:11:50.629Z,170.75
2023-05-03T09:13:53.676Z,100.35
2023-05-03T09:15:59.251Z,106.75
2023-05-03T09:18:11.784Z,96.05
2023-05-03T09:20:14.405Z,104.03
2023-05-03T09:22:17.262Z,105.22
2023-05-03T09:24:22.036Z,104.38
2023-05-03T09:26:31.809Z,105.15
2023-05-03T09:28:42.094Z,105.30
2023-05-03T09:30:45.098Z,109.47
2023-05-03T09:32:50.369Z,169.45
2023-05-03T09:35:10.304Z,83.57
2023-05-03T09:37:19.811Z,108.38
2023-05-03T09:39:22.378Z,109.63
2023-05-03T09:41:31.927Z,153.10
2023-05-03T09:43:36.016Z,200.10
2023-05-03T09:45:39.216Z,111.90
2023-05-03T09:47:53.995Z,91.32
2023-05-03T09:49:56.766Z,99.65
2023-05-03T09:51:59.859Z,109.82
2023-05-03T09:54:03.808Z,121.65
2023-05-03T09:56:12.728Z,123.30
2023-05-03T09:58:21.918Z,137.70
2023-05-03T10:00:25.622Z,126.07
2023-05-03T10:02:32.873Z,92.75
2023-05-03T10:04:40.285Z,169.55
2023-05-03T10:06:45.431Z,133.20
2023-05-03T10:08:53.212Z,119.40
2023-05-03T10:10:56.106Z,134.00
2023-05-03T10:13:02.325Z,168.65
2023-05-03T10:15:10.916Z,129.00
2023-05-03T10:17:22.323Z,108.38
2023-05-03T10:19:37.110Z,98.90
2023-05-03T10:21:54.332Z,80.30
2023-05-03T10:24:13.583Z,120.38
2023-05-03T10:26:16.582Z,154.10
2023-05-03T10:28:19.718Z,119.78
2023-05-03T10:30:33.198Z,134.35
2023-05-03T10:32:39.847Z,102.20
2023-05-03T10:34:44.566Z,121.32
2023-05-03T10:36:49.861Z,132.43
2023-05-03T10:38:57.700Z,152.73
2023-05-03T10:41:03.854Z,132.38
2023-05-03T10:43:06.359Z,44.88
2023-05-03T10:45:09.925Z,58.88
2023-05-03T10:47:17.573Z,92.68
2023-05-03T10:49:21.930Z,77.28
2023-05-03T10:51:37.433Z,137.20
2023-05-03T10:53:42.787Z,66.68
2023-05-03T10:56:05.602Z,200.65
2023-05-03T10:58:13.507Z,146.40
2023-05-03T11:00:22.293Z,176.52
2023-05-03T11:02:33.001Z,85.57
2023-05-03T11:04:44.910Z,295.40
2023-05-03T11:06:52.035Z,155.55
2023-05-03T11:08:54.932Z,69.85
2023-05-03T11:10:59.931Z,150.68
2023-05-03T11:13:04.069Z,84.18
2023-05-03T11:15:07.826Z,131.53
2023-05-03T11:17:10.483Z,115.68
2023-05-03T11:19:16.185Z,150.90
2023-05-03T11:21:21.419Z,145.35
2023-05-03T11:23:26.307Z,42.20
2023-05-03T11:25:28.802Z,42.65
2023-05-03T11:27:31.477Z,69.75
2023-05-03T11:29:34.459Z,104.40
2023-05-03T11:31:37.056Z,128.60
2023-05-03T11:33:40.466Z,180.43
2023-05-03T11:35:45.892Z,177.37
2023-05-03T11:37:48.464Z,138.48
2023-05-03T11:39:51.816Z,50.25
2023-05-03T11:42:04.823Z,141.20
2023-05-03T11:44:16.371Z,79.15
2023-05-03T11:46:23.388Z,31.17
2023-05-03T11:48:28.154Z,68.25
2023-05-03T11:50:51.828Z,43.95
2023-05-03T11:52:54.554Z,25.85
2023-05-03T11:54:57.655Z,23.38
2023-05-03T11:57:00.911Z,36.70
2023-05-03T11:59:05.367Z,90.23
2023-05-03T12:01:12.108Z,44.38
2023-05-03T12:03:30.215Z,354.38
2023-05-03T12:05:34.362Z,164.32
2023-05-03T12:07:41.520Z,61.50
2023-05-03T12:09:51.509Z,145.80
2023-05-03T12:11:59.314Z,168.77
2023-05-03T12:14:04.905Z,65.80
2023-05-03T12:16:13.590Z,110.93
2023-05-03T12:18:20.866Z,401.00
2023-05-03T12:21:05.754Z,150.82
2023-05-03T12:22:53.022Z,437.50
2023-05-03T12:24:59.290Z,171.85
2023-05-03T12:27:02.905Z,289.35
2023-05-03T12:29:06.849Z,261.15
2023-05-03T12:31:13.101Z,214.10
2023-05-03T12:33:17.161Z,285.73
2023-05-03T12:37:27.099Z,69.88
2023-05-03T12:39:33.413Z,61.55
2023-05-03T12:42:05.432Z,456.95
2023-05-03T12:44:00.487Z,467.60
2023-05-03T12:46:25.208Z,265.27
2023-05-03T12:48:35.266Z,226.40
2023-05-03T12:50:39.071Z,315.30
2023-05-03T12:52:45.333Z,378.17
2023-05-03T12:54:54.971Z,163.02
2023-05-03T12:59:31.796Z,188.93
2023-05-03T13:03:34.204Z,368.38
2023-05-03T13:05:38.549Z,298.88
2023-05-03T13:12:13.102Z,333.75
2023-05-03T13:14:16.823Z,40.70
2023-05-03T13:16:19.960Z,36.33
2023-05-03T13:18:23.101Z,209.82
2023-05-03T13:20:25.568Z,186.48
2023-05-03T13:22:28.091Z,343.75
2023-05-03T13:24:30.569Z,62.38
2023-05-03T13:26:35.632Z,220.48
2023-05-03T13:28:41.564Z,252.15
2023-05-03T13:30:43.949Z,253.65
2023-05-03T13:32:46.421Z,424.83
2023-05-03T13:34:49.003Z,410.90
2023-05-03T13:36:51.462Z,348.33
2023-05-03T13:38:54.362Z,186.68
2023-05-03T13:40:56.828Z,254.52
2023-05-03T13:42:59.362Z,230.45
2023-05-03T13:45:05.652Z,268.10
2023-05-03T13:47:10.468Z,83.68
2023-05-03T13:49:13.168Z,124.40
2023-05-03T13:51:15.758Z,45.50
2023-05-03T13:53:21.074Z,201.43
2023-05-03T13:55:26.470Z,389.50
2023-05-03T13:57:29.084Z,241.68
2023-05-03T13:59:31.602Z,308.65
2023-05-03T14:01:38.241Z,204.63
2023-05-03T14:03:40.984Z,321.52
2023-05-03T14:05:43.571Z,401.55
2023-05-03T14:07:47.056Z,182.18
2023-05-03T14:09:49.560Z,21.17
2023-05-03T14:11:52.126Z,371.33
2023-05-03T14:13:57.364Z,140.98
2023-05-03T14:16:01.660Z,334.27
2023-05-03T14:18:07.927Z,116.05
2023-05-03T14:20:12.285Z,178.38
2023-05-03T14:22:14.804Z,265.83
2023-05-03T14:24:17.331Z,267.20
2023-05-03T14:26:20.792Z,192.13
2023-05-03T14:28:23.438Z,29.00
2023-05-03T14:30:26.179Z,273.35
2023-05-03T14:32:28.672Z,271.45
2023-05-03T14:34:33.780Z,313.77
2023-05-03T14:36:41.211Z,367.17
2023-05-03T14:38:43.920Z,327.48
2023-05-03T14:40:46.491Z,313.45
2023-05-03T14:42:49.119Z,39.53
2023-05-03T14:44:53.899Z,155.63
2023-05-03T14:46:59.342Z,17.30
2023-05-03T14:49:03.982Z,269.50
2023-05-03T14:51:09.097Z,324.30
2023-05-03T14:53:14.297Z,325.38
2023-05-03T14:55:16.680Z,332.42
2023-05-03T14:57:19.224Z,253.63
2023-05-03T14:59:24.041Z,176.48
2023-05-03T15:01:27.316Z,192.85
2023-05-03T15:03:30.782Z,336.43
2023-05-03T15:05:33.593Z,155.40
2023-05-03T15:07:38.772Z,419.38
2023-05-03T15:09:41.357Z,60.10
2023-05-03T15:11:44.003Z,67.78
2023-05-03T15:13:46.677Z,19.60
2023-05-03T15:15:53.942Z,26.85
2023-05-03T15:17:58.508Z,325.17
2023-05-03T15:20:01.582Z,281.17
2023-05-03T15:22:04.322Z,212.85
2023-05-03T15:24:09.574Z,235.57
2023-05-03T15:26:12.353Z,154.63
2023-05-03T15:28:14.840Z,165.18
2023-05-03T15:30:17.650Z,255.38
2023-05-03T15:32:20.522Z,244.05
2023-05-03T15:34:22.961Z,173.80
2023-05-03T15:36:25.559Z,175.30
2023-05-03T15:38:31.043Z,239.23
2023-05-03T15:40:36.601Z,235.32
2023-05-03T15:42:39.545Z,255.80
2023-05-03T15:44:42.054Z,186.25
2023-05-03T15:46:44.853Z,255.48
2023-05-03T15:48:47.423Z,176.45
2023-05-03T15:50:50.374Z,251.77
2023-05-03T15:52:57.180Z,216.45
2023-05-03T15:54:59.695Z,86.50
2023-05-03T15:57:05.148Z,50.50
2023-05-03T15:59:07.770Z,282.65
2023-05-03T16:01:19.038Z,210.63
2023-05-03T16:03:24.704Z,148.23
2023-05-03T16:05:29.307Z,302.17
2023-05-03T16:07:33.857Z,242.57
2023-05-03T16:09:36.260Z,225.05
2023-05-03T16:11:38.707Z,208.40
2023-05-03T16:13:47.079Z,152.60
2023-05-03T16:15:52.665Z,188.65
2023-05-03T16:17:55.274Z,244.40
2023-05-03T16:19:58.415Z,182.03
2023-05-03T16:22:01.039Z,432.88
2023-05-03T16:24:04.918Z,206.90
2023-05-03T16:26:18.086Z,271.85
2023-05-03T16:28:20.977Z,237.60
2023-05-03T16:30:28.950Z,224.05
2023-05-03T16:32:31.406Z,235.88
2023-05-03T16:34:34.406Z,227.15
2023-05-03T16:36:42.668Z,263.33
2023-05-03T16:38:45.426Z,235.95
2023-05-03T16:40:47.881Z,194.52
2023-05-03T16:42:52.211Z,191.90
2023-05-03T16:46:59.439Z,214.52
2023-05-03T16:49:02.113Z,191.23
2023-05-03T16:51:04.898Z,191.13
2023-05-03T16:53:07.378Z,60.65
2023-05-03T16:55:11.057Z,43.45
2023-05-03T16:57:13.845Z,81.20
2023-05-03T16:59:19.556Z,77.53
2023-05-03T17:01:22.332Z,173.65
2023-05-03T17:03:27.756Z,209.57
2023-05-03T17:05:33.337Z,118.03
2023-05-03T17:07:36.880Z,149.45
2023-05-03T17:09:39.563Z,49.58
2023-05-03T17:11:42.214Z,110.78
2023-05-03T17:13:45.050Z,244.25
2023-05-03T17:15:48.153Z,189.95
2023-05-03T17:17:52.217Z,41.15
2023-05-03T17:19:57.756Z,30.25
2023-05-03T17:22:01.225Z,36.35
2023-05-03T17:24:03.876Z,129.07
2023-05-03T17:26:11.070Z,61.20
2023-05-03T17:28:13.505Z,35.85
2023-05-03T17:30:17.780Z,35.63
2023-05-03T17:32:21.651Z,48.58
2023-05-03T17:34:25.151Z,38.17
2023-05-03T17:36:30.400Z,57.85
2023-05-03T17:38:33.339Z,102.15
2023-05-03T17:40:36.861Z,166.57
2023-05-03T17:42:42.584Z,196.48
2023-05-03T17:44:45.613Z,162.70
2023-05-03T17:46:48.280Z,221.00
2023-05-03T17:48:52.295Z,143.65
2023-05-03T17:50:59.028Z,157.43
2023-05-03T17:53:07.321Z,191.10
2023-05-03T17:55:12.762Z,410.40
2023-05-03T17:57:15.217Z,231.02
2023-05-03T17:59:20.899Z,272.40
2023-05-03T18:01:23.383Z,223.93
2023-05-03T18:03:26.135Z,250.77
2023-05-03T18:05:28.732Z,235.38
2023-05-03T18:07:31.300Z,415.13
2023-05-03T18:09:36.533Z,302.08
2023-05-03T18:11:41.378Z,298.40
2023-05-03T18:13:45.138Z,246.05
2023-05-03T18:15:47.954Z,278.80
2023-05-03T18:17:50.574Z,229.32
2023-05-03T18:19:53.384Z,401.88
2023-05-03T18:21:55.868Z,332.85
2023-05-03T18:23:59.101Z,377.35
2023-05-03T18:26:04.195Z,411.23
2023-05-03T18:28:08.935Z,297.63
2023-05-03T18:30:12.731Z,288.70
2023-05-03T18:32:15.731Z,273.33
2023-05-03T18:34:21.351Z,393.58
2023-05-03T18:36:24.187Z,338.85
2023-05-03T18:38:27.054Z,452.35
2023-05-03T18:40:30.504Z,374.60
2023-05-03T18:42:35.794Z,325.48
2023-05-03T18:44:39.804Z,406.20
2023-05-03T18:46:43.520Z,361.23
2023-05-03T18:48:46.412Z,403.15
2023-05-03T18:50:49.404Z,374.75
2023-05-03T18:52:51.906Z,361.73
2023-05-03T18:54:54.368Z,386.92
2023-05-03T18:56:57.014Z,390.33
2023-05-03T18:59:02.253Z,335.67
2023-05-03T19:01:06.102Z,390.52
2023-05-03T19:03:09.113Z,336.23
2023-05-03T19:05:13.533Z,257.10
2023-05-03T19:07:16.842Z,261.15
2023-05-03T19:09:19.353Z,264.92
2023-05-03T19:11:21.902Z,259.17
2023-05-03T19:13:25.614Z,240.00
2023-05-03T19:15:31.274Z,214.38
2023-05-03T19:17:36.751Z,213.20
2023-05-03T19:19:39.250Z,209.60
2023-05-03T19:21:43.893Z,211.80
2023-05-03T19:23:46.522Z,196.68
2023-05-03T19:25:50.072Z,216.03
2023-05-03T19:27:55.459Z,236.13
2023-05-03T19:30:00.502Z,235.35
2023-05-03T19:32:06.102Z,187.82
2023-05-03T19:34:11.315Z,214.38
2023-05-03T19:36:15.032Z,209.55
2023-05-03T19:38:17.551Z,237.27
2023-05-03T19:40:20.143Z,218.82
2023-05-03T19:42:22.652Z,219.32
2023-05-03T19:44:28.423Z,198.07
2023-05-03T19:46:31.280Z,237.90
2023-05-03T19:48:36.708Z,295.02
2023-05-03T19:50:39.228Z,299.70
2023-05-03T19:52:42.422Z,314.23
2023-05-03T19:54:44.969Z,297.63
2023-05-03T19:56:47.641Z,336.85
2023-05-03T19:58:50.929Z,421.90
2023-05-03T20:00:53.924Z,447.42
2023-05-03T20:02:56.920Z,455.33
2023-05-03T20:05:02.068Z,464.27
2023-05-03T20:07:04.546Z,457.80
2023-05-03T20:09:09.450Z,446.05
2023-05-03T20:11:12.008Z,465.00
2023-05-03T20:13:14.500Z,451.33
2023-05-03T20:15:17.080Z,450.48
2023-05-03T20:17:19.576Z,461.50
2023-05-03T20:19:23.617Z,452.35
2023-05-03T20:21:32.396Z,455.27
2023-05-03T20:23:34.888Z,443.80
2023-05-03T20:25:37.342Z,434.92
2023-05-03T20:27:43.849Z,429.83
2023-05-03T20:29:46.555Z,417.85
2023-05-03T20:31:51.494Z,415.08
2023-05-03T20:33:53.995Z,430.65
2023-05-03T20:35:57.902Z,436.27
2023-05-03T20:38:02.952Z,428.15
2023-05-03T20:40:06.779Z,410.90
2023-05-03T20:42:09.672Z,405.52
2023-05-03T20:44:12.319Z,390.85
2023-05-03T20:46:14.909Z,373.27
2023-05-03T20:48:17.641Z,398.55
2023-05-03T20:50:20.245Z,379.90
2023-05-03T20:52:23.096Z,366.90
2023-05-03T20:54:28.349Z,377.92
2023-05-03T20:56:32.600Z,376.30
2023-05-03T21:00:37.603Z,308.13
2023-05-03T21:02:40.942Z,335.92
2023-05-03T21:04:43.594Z,338.57
2023-05-03T21:06:46.082Z,347.27
2023-05-03T21:08:48.926Z,336.65
2023-05-03T21:10:57.020Z,351.45
2023-05-03T21:12:59.627Z,384.80
2023-05-03T21:15:02.409Z,411.67
2023-05-03T21:17:08.787Z,391.08
2023-05-03T21:19:11.532Z,383.25
2023-05-03T21:21:15.313Z,385.65
2023-05-03T21:23:17.721Z,421.33
2023-05-03T21:25:20.468Z,385.15
2023-05-03T21:27:25.696Z,390.00
2023-05-03T21:29:29.196Z,349.30
2023-05-03T21:31:31.821Z,389.92
2023-05-03T21:33:38.601Z,402.25
2023-05-03T21:35:41.143Z,373.30
2023-05-03T21:37:43.964Z,421.95
2023-05-03T21:39:57.742Z,437.23
2023-05-03T21:42:04.232Z,369.02
2023-05-03T21:44:09.536Z,371.35
2023-05-03T21:46:12.061Z,393.17
2023-05-03T21:48:14.698Z,408.70
2023-05-03T21:50:17.476Z,395.50
2023-05-03T21:52:20.051Z,455.27
2023-05-03T21:54:22.493Z,446.15
2023-05-03T21:56:25.003Z,491.10
2023-05-03T21:58:27.535Z,496.50
2023-05-03T22:00:33.234Z,445.45
2023-05-03T22:02:35.810Z,480.02
2023-05-03T22:04:38.403Z,475.08
2023-05-03T22:06:41.004Z,487.83
2023-05-03T22:08:43.618Z,499.73
2023-05-03T22:10:46.648Z,524.00
2023-05-03T22:12:49.218Z,533.63
2023-05-03T22:14:52.020Z,527.00
2023-05-03T22:16:57.242Z,485.55
2023-05-03T22:18:59.801Z,513.30
2023-05-03T22:21:03.471Z,506.48
2023-05-03T22:23:05.993Z,513.78
2023-05-03T22:25:09.481Z,530.97
2023-05-03T22:27:11.969Z,518.37
2023-05-03T22:29:14.445Z,523.72
2023-05-03T22:31:18.282Z,547.10
2023-05-03T22:33:23.690Z,535.75
2023-05-03T22:35:26.335Z,531.88
2023-05-03T22:37:28.764Z,519.55
2023-05-03T22:39:31.296Z,527.55
2023-05-03T22:41:33.753Z,546.63
2023-05-03T22:43:36.629Z,541.17
2023-05-03T22:45:39.165Z,547.70
2023-05-03T22:47:43.609Z,554.65
2023-05-03T22:49:49.976Z,514.03
2023-05-03T22:51:54.148Z,537.85
2023-05-03T22:53:56.733Z,534.72
2023-05-03T22:56:01.064Z,521.88
2023-05-03T23:00:10.600Z,446.77
2023-05-03T23:02:13.025Z,474.20
2023-05-03T23:04:15.718Z,478.00
2023-05-03T23:06:20.830Z,497.58
2023-05-03T23:08:23.562Z,533.88
2023-05-03T23:10:26.066Z,541.28
2023-05-03T23:12:28.701Z,529.63
2023-05-03T23:14:31.237Z,488.10
2023-05-03T23:16:34.027Z,487.88
2023-05-03T23:18:36.654Z,476.92
2023-05-03T23:20:39.196Z,485.52
2023-05-03T23:22:44.274Z,487.73
2023-05-03T23:24:46.765Z,516.63
2023-05-03T23:26:49.249Z,539.20
2023-05-03T23:28:52.254Z,483.45
2023-05-03T23:30:55.266Z,491.67
2023-05-03T23:32:58.790Z,547.20
2023-05-03T23:35:04.625Z,478.92
2023-05-03T23:37:07.279Z,456.60
2023-05-03T23:39:12.906Z,512.30
2023-05-03T23:41:15.550Z,513.50
2023-05-03T23:43:17.949Z,483.55
2023-05-03T23:45:24.005Z,503.35
2023-05-03T23:47:26.495Z,462.88
2023-05-03T23:49:28.990Z,526.30
2023-05-03T23:51:31.467Z,513.17
2023-05-03T23:53:33.894Z,494.42
2023-05-03T23:55:38.989Z,493.30
2023-05-03T23:57:41.635Z,460.95
2023-05-03T23:59:44.437Z,472.23
